sensor_id;sensor_type;location;lat;lon;timestamp;P1;durP1;ratioP1;P2;durP2;ratioP2
20931;SDS011;10625;49.054;9.348;2022-08-19T00:02:02;18.13;;;16.33;;
20931;SDS011;10625;49.054;9.348;2022-08-19T00:04:31;15.07;;;13.57;;
20931;SDS011;10625;49.054;9.348;2022-08-19T00:06:59;14.80;;;13.30;;
20931;SDS011;10625;49.054;9.348;2022-08-19T00:09:27;16.80;;;15.10;;
20931;SDS011;10625;49.054;9.348;2022-08-19T00:11:55;14.93;;;13.37;;
20931;SDS011;10625;49.054;9.348;2022-08-19T00:14:23;17.33;;;15.53;;
20931;SDS011;10625;49.054;9.348;2022-08-19T00:16:50;18.57;;;16.63;;
20931;SDS011;10625;49.054;9.348;2022-08-19T00:19:20;17.00;;;15.23;;
20931;SDS011;10625;49.054;9.348;2022-08-19T00:21:48;17.60;;;15.70;;
20931;SDS011;10625;49.054;9.348;2022-08-19T00:24:15;17.03;;;15.30;;
20931;SDS011;10625;49.054;9.348;2022-08-19T00:26:43;17.50;;;15.70;;
20931;SDS011;10625;49.054;9.348;2022-08-19T00:29:12;16.77;;;15.17;;
20931;SDS011;10625;49.054;9.348;2022-08-19T00:31:39;16.73;;;15.03;;
20931;SDS011;10625;49.054;9.348;2022-08-19T00:34:09;17.83;;;16.03;;
20931;SDS011;10625;49.054;9.348;2022-08-19T00:36:37;17.73;;;15.93;;
20931;SDS011;10625;49.054;9.348;2022-08-19T00:39:05;18.10;;;16.23;;
20931;SDS011;10625;49.054;9.348;2022-08-19T00:41:33;17.87;;;16.07;;
20931;SDS011;10625;49.054;9.348;2022-08-19T00:46:29;18.73;;;16.40;;
20931;SDS011;10625;49.054;9.348;2022-08-19T00:48:57;17.63;;;15.37;;
20931;SDS011;10625;49.054;9.348;2022-08-19T00:51:26;18.63;;;16.70;;
20931;SDS011;10625;49.054;9.348;2022-08-19T00:53:54;16.50;;;14.80;;
20931;SDS011;10625;49.054;9.348;2022-08-19T00:56:22;17.53;;;15.30;;
20931;SDS011;10625;49.054;9.348;2022-08-19T00:58:52;18.43;;;16.43;;
20931;SDS011;10625;49.054;9.348;2022-08-19T01:01:21;18.17;;;15.97;;
20931;SDS011;10625;49.054;9.348;2022-08-19T01:03:48;17.90;;;16.10;;
20931;SDS011;10625;49.054;9.348;2022-08-19T01:06:16;17.63;;;15.83;;
20931;SDS011;10625;49.054;9.348;2022-08-19T01:08:43;17.43;;;15.67;;
20931;SDS011;10625;49.054;9.348;2022-08-19T01:12:26;16.73;;;15.03;;
20931;SDS011;10625;49.054;9.348;2022-08-19T01:14:53;16.40;;;14.80;;
20931;SDS011;10625;49.054;9.348;2022-08-19T01:17:20;18.97;;;16.87;;
20931;SDS011;10625;49.054;9.348;2022-08-19T01:19:48;16.43;;;14.53;;
20931;SDS011;10625;49.054;9.348;2022-08-19T01:24:44;19.17;;;15.77;;
20931;SDS011;10625;49.054;9.348;2022-08-19T01:27:12;19.27;;;17.17;;
20931;SDS011;10625;49.054;9.348;2022-08-19T01:29:40;18.13;;;16.20;;
20931;SDS011;10625;49.054;9.348;2022-08-19T01:32:13;17.33;;;15.27;;
20931;SDS011;10625;49.054;9.348;2022-08-19T01:34:38;17.90;;;16.10;;
20931;SDS011;10625;49.054;9.348;2022-08-19T01:37:06;17.60;;;15.80;;
20931;SDS011;10625;49.054;9.348;2022-08-19T01:39:34;17.17;;;14.80;;
20931;SDS011;10625;49.054;9.348;2022-08-19T01:42:01;19.20;;;16.37;;
20931;SDS011;10625;49.054;9.348;2022-08-19T01:44:29;18.13;;;16.27;;
20931;SDS011;10625;49.054;9.348;2022-08-19T01:46:57;19.93;;;16.97;;
20931;SDS011;10625;49.054;9.348;2022-08-19T01:49:24;18.03;;;15.63;;
20931;SDS011;10625;49.054;9.348;2022-08-19T01:51:53;18.03;;;16.20;;
20931;SDS011;10625;49.054;9.348;2022-08-19T01:54:21;18.50;;;16.23;;
20931;SDS011;10625;49.054;9.348;2022-08-19T01:56:50;19.40;;;17.27;;
20931;SDS011;10625;49.054;9.348;2022-08-19T01:59:19;18.37;;;16.50;;
20931;SDS011;10625;49.054;9.348;2022-08-19T02:01:47;18.87;;;16.87;;
20931;SDS011;10625;49.054;9.348;2022-08-19T02:04:14;17.77;;;15.97;;
20931;SDS011;10625;49.054;9.348;2022-08-19T02:06:42;18.60;;;16.50;;
20931;SDS011;10625;49.054;9.348;2022-08-19T02:09:09;18.80;;;16.80;;
20931;SDS011;10625;49.054;9.348;2022-08-19T02:11:37;18.30;;;16.40;;
20931;SDS011;10625;49.054;9.348;2022-08-19T02:14:05;19.23;;;16.60;;
20931;SDS011;10625;49.054;9.348;2022-08-19T02:16:33;17.27;;;15.43;;
20931;SDS011;10625;49.054;9.348;2022-08-19T02:19:00;18.47;;;16.57;;
20931;SDS011;10625;49.054;9.348;2022-08-19T02:21:28;18.23;;;16.33;;
20931;SDS011;10625;49.054;9.348;2022-08-19T02:23:56;19.13;;;16.73;;
20931;SDS011;10625;49.054;9.348;2022-08-19T02:26:23;20.57;;;17.33;;
20931;SDS011;10625;49.054;9.348;2022-08-19T02:28:52;17.87;;;15.57;;
20931;SDS011;10625;49.054;9.348;2022-08-19T02:31:21;19.63;;;16.40;;
20931;SDS011;10625;49.054;9.348;2022-08-19T02:33:49;18.50;;;16.53;;
20931;SDS011;10625;49.054;9.348;2022-08-19T02:36:16;19.37;;;16.83;;
20931;SDS011;10625;49.054;9.348;2022-08-19T02:38:44;18.10;;;16.20;;
20931;SDS011;10625;49.054;9.348;2022-08-19T02:41:13;18.00;;;15.90;;
20931;SDS011;10625;49.054;9.348;2022-08-19T02:43:41;18.33;;;16.20;;
20931;SDS011;10625;49.054;9.348;2022-08-19T02:46:17;18.77;;;16.87;;
20931;SDS011;10625;49.054;9.348;2022-08-19T02:48:40;20.37;;;18.17;;
20931;SDS011;10625;49.054;9.348;2022-08-19T02:51:07;18.83;;;16.83;;
20931;SDS011;10625;49.054;9.348;2022-08-19T02:53:35;19.80;;;17.03;;
20931;SDS011;10625;49.054;9.348;2022-08-19T02:56:05;20.70;;;17.90;;
20931;SDS011;10625;49.054;9.348;2022-08-19T02:58:32;21.17;;;17.57;;
20931;SDS011;10625;49.054;9.348;2022-08-19T03:00:59;22.77;;;17.97;;
20931;SDS011;10625;49.054;9.348;2022-08-19T03:03:26;21.57;;;18.67;;
20931;SDS011;10625;49.054;9.348;2022-08-19T03:06:07;22.03;;;18.10;;
20931;SDS011;10625;49.054;9.348;2022-08-19T03:08:35;22.67;;;18.13;;
20931;SDS011;10625;49.054;9.348;2022-08-19T03:11:02;22.77;;;18.93;;
20931;SDS011;10625;49.054;9.348;2022-08-19T03:13:29;20.30;;;16.83;;
20931;SDS011;10625;49.054;9.348;2022-08-19T03:15:57;22.33;;;18.13;;
20931;SDS011;10625;49.054;9.348;2022-08-19T03:18:24;23.30;;;17.97;;
20931;SDS011;10625;49.054;9.348;2022-08-19T03:20:52;22.17;;;18.17;;
20931;SDS011;10625;49.054;9.348;2022-08-19T03:23:20;22.27;;;18.43;;
20931;SDS011;10625;49.054;9.348;2022-08-19T03:25:48;21.53;;;18.03;;
20931;SDS011;10625;49.054;9.348;2022-08-19T03:28:16;21.80;;;18.50;;
20931;SDS011;10625;49.054;9.348;2022-08-19T03:30:54;21.53;;;18.37;;
20931;SDS011;10625;49.054;9.348;2022-08-19T03:33:12;20.27;;;18.07;;
20931;SDS011;10625;49.054;9.348;2022-08-19T03:35:39;23.23;;;18.57;;
20931;SDS011;10625;49.054;9.348;2022-08-19T03:38:07;23.60;;;18.87;;
20931;SDS011;10625;49.054;9.348;2022-08-19T03:40:36;21.97;;;18.10;;
20931;SDS011;10625;49.054;9.348;2022-08-19T03:43:03;21.53;;;18.03;;
20931;SDS011;10625;49.054;9.348;2022-08-19T03:45:31;23.97;;;17.77;;
20931;SDS011;10625;49.054;9.348;2022-08-19T03:47:58;24.50;;;19.83;;
20931;SDS011;10625;49.054;9.348;2022-08-19T03:50:26;23.97;;;19.40;;
20931;SDS011;10625;49.054;9.348;2022-08-19T03:52:54;23.43;;;19.10;;
20931;SDS011;10625;49.054;9.348;2022-08-19T03:55:21;24.50;;;19.50;;
20931;SDS011;10625;49.054;9.348;2022-08-19T03:57:48;25.23;;;19.43;;
20931;SDS011;10625;49.054;9.348;2022-08-19T04:00:15;25.23;;;19.33;;
20931;SDS011;10625;49.054;9.348;2022-08-19T04:02:43;25.43;;;20.00;;
20931;SDS011;10625;49.054;9.348;2022-08-19T04:05:10;24.67;;;18.80;;
20931;SDS011;10625;49.054;9.348;2022-08-19T04:07:39;22.27;;;18.17;;
20931;SDS011;10625;49.054;9.348;2022-08-19T04:10:06;21.27;;;17.67;;
20931;SDS011;10625;49.054;9.348;2022-08-19T04:12:33;25.73;;;18.87;;
20931;SDS011;10625;49.054;9.348;2022-08-19T04:15:00;26.60;;;19.97;;
20931;SDS011;10625;49.054;9.348;2022-08-19T04:17:28;24.67;;;19.60;;
20931;SDS011;10625;49.054;9.348;2022-08-19T04:19:55;29.83;;;20.40;;
20931;SDS011;10625;49.054;9.348;2022-08-19T04:22:22;25.33;;;18.90;;
20931;SDS011;10625;49.054;9.348;2022-08-19T04:24:50;28.53;;;20.07;;
20931;SDS011;10625;49.054;9.348;2022-08-19T04:27:17;25.20;;;19.80;;
20931;SDS011;10625;49.054;9.348;2022-08-19T04:29:44;25.70;;;19.10;;
20931;SDS011;10625;49.054;9.348;2022-08-19T04:32:11;24.07;;;19.03;;
20931;SDS011;10625;49.054;9.348;2022-08-19T04:34:40;24.43;;;18.47;;
20931;SDS011;10625;49.054;9.348;2022-08-19T04:37:09;25.93;;;18.07;;
20931;SDS011;10625;49.054;9.348;2022-08-19T04:39:40;25.77;;;17.73;;
20931;SDS011;10625;49.054;9.348;2022-08-19T04:42:25;28.23;;;20.47;;
20931;SDS011;10625;49.054;9.348;2022-08-19T04:45:08;26.97;;;19.30;;
20931;SDS011;10625;49.054;9.348;2022-08-19T04:47:37;25.23;;;19.67;;
20931;SDS011;10625;49.054;9.348;2022-08-19T04:50:05;25.87;;;20.37;;
20931;SDS011;10625;49.054;9.348;2022-08-19T04:52:32;23.70;;;18.23;;
20931;SDS011;10625;49.054;9.348;2022-08-19T04:55:00;28.00;;;19.57;;
20931;SDS011;10625;49.054;9.348;2022-08-19T04:57:27;25.50;;;19.03;;
20931;SDS011;10625;49.054;9.348;2022-08-19T04:59:54;23.70;;;17.40;;
20931;SDS011;10625;49.054;9.348;2022-08-19T05:02:22;23.87;;;20.17;;
20931;SDS011;10625;49.054;9.348;2022-08-19T05:04:56;26.40;;;20.37;;
20931;SDS011;10625;49.054;9.348;2022-08-19T05:07:20;25.93;;;18.97;;
20931;SDS011;10625;49.054;9.348;2022-08-19T05:09:47;24.37;;;18.83;;
20931;SDS011;10625;49.054;9.348;2022-08-19T05:12:14;21.67;;;18.33;;
20931;SDS011;10625;49.054;9.348;2022-08-19T05:14:42;24.37;;;19.10;;
20931;SDS011;10625;49.054;9.348;2022-08-19T05:17:11;23.73;;;19.43;;
20931;SDS011;10625;49.054;9.348;2022-08-19T05:19:38;26.13;;;19.83;;
20931;SDS011;10625;49.054;9.348;2022-08-19T05:22:24;25.63;;;20.03;;
20931;SDS011;10625;49.054;9.348;2022-08-19T05:25:05;22.47;;;19.57;;
20931;SDS011;10625;49.054;9.348;2022-08-19T05:27:32;24.83;;;19.80;;
20931;SDS011;10625;49.054;9.348;2022-08-19T05:29:59;26.37;;;19.60;;
20931;SDS011;10625;49.054;9.348;2022-08-19T05:32:27;20.83;;;17.87;;
20931;SDS011;10625;49.054;9.348;2022-08-19T05:34:55;24.17;;;17.93;;
20931;SDS011;10625;49.054;9.348;2022-08-19T05:37:22;26.63;;;19.97;;
20931;SDS011;10625;49.054;9.348;2022-08-19T05:39:51;23.40;;;17.37;;
20931;SDS011;10625;49.054;9.348;2022-08-19T05:42:18;23.97;;;18.10;;
20931;SDS011;10625;49.054;9.348;2022-08-19T05:44:46;25.60;;;18.90;;
20931;SDS011;10625;49.054;9.348;2022-08-19T05:47:15;25.33;;;19.73;;
20931;SDS011;10625;49.054;9.348;2022-08-19T05:49:44;24.23;;;18.47;;
20931;SDS011;10625;49.054;9.348;2022-08-19T05:52:13;26.67;;;20.00;;
20931;SDS011;10625;49.054;9.348;2022-08-19T05:54:41;27.30;;;19.80;;
20931;SDS011;10625;49.054;9.348;2022-08-19T05:57:09;25.67;;;19.27;;
20931;SDS011;10625;49.054;9.348;2022-08-19T05:59:36;24.87;;;19.83;;
20931;SDS011;10625;49.054;9.348;2022-08-19T06:02:04;26.50;;;19.50;;
20931;SDS011;10625;49.054;9.348;2022-08-19T06:04:32;24.40;;;19.10;;
20931;SDS011;10625;49.054;9.348;2022-08-19T06:06:59;28.13;;;21.43;;
20931;SDS011;10625;49.054;9.348;2022-08-19T06:09:28;31.77;;;22.73;;
20931;SDS011;10625;49.054;9.348;2022-08-19T06:11:56;28.53;;;21.83;;
20931;SDS011;10625;49.054;9.348;2022-08-19T06:14:27;28.83;;;22.83;;
20931;SDS011;10625;49.054;9.348;2022-08-19T06:16:54;27.83;;;20.93;;
20931;SDS011;10625;49.054;9.348;2022-08-19T06:19:22;27.23;;;21.50;;
20931;SDS011;10625;49.054;9.348;2022-08-19T06:21:51;26.43;;;19.73;;
20931;SDS011;10625;49.054;9.348;2022-08-19T06:24:22;29.50;;;21.90;;
20931;SDS011;10625;49.054;9.348;2022-08-19T06:26:51;25.20;;;20.37;;
20931;SDS011;10625;49.054;9.348;2022-08-19T06:29:20;25.90;;;19.80;;
20931;SDS011;10625;49.054;9.348;2022-08-19T06:31:48;26.93;;;19.80;;
20931;SDS011;10625;49.054;9.348;2022-08-19T06:34:16;30.43;;;22.97;;
20931;SDS011;10625;49.054;9.348;2022-08-19T06:36:45;25.87;;;21.43;;
20931;SDS011;10625;49.054;9.348;2022-08-19T06:39:14;26.27;;;20.20;;
20931;SDS011;10625;49.054;9.348;2022-08-19T06:41:44;25.43;;;19.13;;
20931;SDS011;10625;49.054;9.348;2022-08-19T06:44:11;26.97;;;20.57;;
20931;SDS011;10625;49.054;9.348;2022-08-19T06:46:39;26.80;;;19.83;;
20931;SDS011;10625;49.054;9.348;2022-08-19T06:49:06;26.77;;;21.27;;
20931;SDS011;10625;49.054;9.348;2022-08-19T06:51:35;25.03;;;20.17;;
20931;SDS011;10625;49.054;9.348;2022-08-19T06:54:03;26.20;;;19.10;;
20931;SDS011;10625;49.054;9.348;2022-08-19T06:56:30;26.90;;;21.00;;
20931;SDS011;10625;49.054;9.348;2022-08-19T06:59:05;28.80;;;19.90;;
20931;SDS011;10625;49.054;9.348;2022-08-19T07:01:28;24.27;;;19.93;;
20931;SDS011;10625;49.054;9.348;2022-08-19T07:03:56;25.23;;;19.97;;
20931;SDS011;10625;49.054;9.348;2022-08-19T07:06:23;25.17;;;19.37;;
20931;SDS011;10625;49.054;9.348;2022-08-19T07:08:50;25.83;;;20.17;;
20931;SDS011;10625;49.054;9.348;2022-08-19T07:11:18;28.10;;;20.13;;
20931;SDS011;10625;49.054;9.348;2022-08-19T07:13:46;24.97;;;18.97;;
20931;SDS011;10625;49.054;9.348;2022-08-19T07:16:15;26.60;;;20.93;;
20931;SDS011;10625;49.054;9.348;2022-08-19T07:18:43;26.40;;;19.80;;
20931;SDS011;10625;49.054;9.348;2022-08-19T07:21:12;28.47;;;19.83;;
20931;SDS011;10625;49.054;9.348;2022-08-19T07:23:39;23.70;;;19.10;;
20931;SDS011;10625;49.054;9.348;2022-08-19T07:26:07;26.07;;;20.60;;
20931;SDS011;10625;49.054;9.348;2022-08-19T07:28:34;23.83;;;18.50;;
20931;SDS011;10625;49.054;9.348;2022-08-19T07:31:03;23.37;;;17.27;;
20931;SDS011;10625;49.054;9.348;2022-08-19T07:33:31;26.23;;;19.93;;
20931;SDS011;10625;49.054;9.348;2022-08-19T07:35:58;25.07;;;18.73;;
20931;SDS011;10625;49.054;9.348;2022-08-19T07:38:26;23.33;;;18.00;;
20931;SDS011;10625;49.054;9.348;2022-08-19T07:40:53;25.30;;;18.70;;
20931;SDS011;10625;49.054;9.348;2022-08-19T07:43:20;26.83;;;17.53;;
20931;SDS011;10625;49.054;9.348;2022-08-19T07:45:49;23.27;;;18.33;;
20931;SDS011;10625;49.054;9.348;2022-08-19T07:48:16;21.53;;;17.07;;
20931;SDS011;10625;49.054;9.348;2022-08-19T07:50:44;23.43;;;17.40;;
20931;SDS011;10625;49.054;9.348;2022-08-19T07:53:11;23.13;;;18.40;;
20931;SDS011;10625;49.054;9.348;2022-08-19T07:55:39;23.93;;;18.67;;
20931;SDS011;10625;49.054;9.348;2022-08-19T07:58:06;21.97;;;18.43;;
20931;SDS011;10625;49.054;9.348;2022-08-19T08:00:33;21.77;;;16.13;;
20931;SDS011;10625;49.054;9.348;2022-08-19T08:03:02;20.63;;;16.33;;
20931;SDS011;10625;49.054;9.348;2022-08-19T08:05:29;23.00;;;17.40;;
20931;SDS011;10625;49.054;9.348;2022-08-19T08:08:15;19.97;;;17.60;;
20931;SDS011;10625;49.054;9.348;2022-08-19T08:10:50;24.10;;;18.23;;
20931;SDS011;10625;49.054;9.348;2022-08-19T08:13:17;22.63;;;17.30;;
20931;SDS011;10625;49.054;9.348;2022-08-19T08:15:44;20.67;;;16.37;;
20931;SDS011;10625;49.054;9.348;2022-08-19T08:18:11;21.80;;;15.60;;
20931;SDS011;10625;49.054;9.348;2022-08-19T08:20:39;20.93;;;16.00;;
20931;SDS011;10625;49.054;9.348;2022-08-19T08:23:06;20.77;;;14.93;;
20931;SDS011;10625;49.054;9.348;2022-08-19T08:25:38;21.67;;;16.27;;
20931;SDS011;10625;49.054;9.348;2022-08-19T08:28:05;21.57;;;15.70;;
20931;SDS011;10625;49.054;9.348;2022-08-19T08:30:34;20.80;;;15.53;;
20931;SDS011;10625;49.054;9.348;2022-08-19T08:33:03;20.43;;;16.80;;
20931;SDS011;10625;49.054;9.348;2022-08-19T08:35:30;19.93;;;15.97;;
20931;SDS011;10625;49.054;9.348;2022-08-19T08:37:57;18.07;;;15.07;;
20931;SDS011;10625;49.054;9.348;2022-08-19T08:40:38;18.43;;;14.40;;
20931;SDS011;10625;49.054;9.348;2022-08-19T08:43:09;17.30;;;13.53;;
20931;SDS011;10625;49.054;9.348;2022-08-19T08:45:34;16.37;;;13.63;;
20931;SDS011;10625;49.054;9.348;2022-08-19T08:48:04;17.70;;;14.53;;
20931;SDS011;10625;49.054;9.348;2022-08-19T08:50:34;19.87;;;15.10;;
20931;SDS011;10625;49.054;9.348;2022-08-19T08:53:02;17.00;;;13.90;;
20931;SDS011;10625;49.054;9.348;2022-08-19T08:55:31;16.30;;;13.97;;
20931;SDS011;10625;49.054;9.348;2022-08-19T08:58:15;18.47;;;14.43;;
20931;SDS011;10625;49.054;9.348;2022-08-19T09:00:40;17.77;;;14.57;;
20931;SDS011;10625;49.054;9.348;2022-08-19T09:03:15;17.33;;;13.50;;
20931;SDS011;10625;49.054;9.348;2022-08-19T09:08:26;17.53;;;14.17;;
20931;SDS011;10625;49.054;9.348;2022-08-19T09:10:52;14.80;;;13.03;;
20931;SDS011;10625;49.054;9.348;2022-08-19T09:16:13;16.52;;;13.53;;
20931;SDS011;10625;49.054;9.348;2022-08-19T09:18:44;15.97;;;13.23;;
20931;SDS011;10625;49.054;9.348;2022-08-19T09:21:13;16.90;;;13.70;;
20931;SDS011;10625;49.054;9.348;2022-08-19T09:23:41;15.07;;;12.73;;
20931;SDS011;10625;49.054;9.348;2022-08-19T09:26:10;16.63;;;13.33;;
20931;SDS011;10625;49.054;9.348;2022-08-19T09:28:40;16.07;;;14.10;;
20931;SDS011;10625;49.054;9.348;2022-08-19T09:31:10;14.83;;;13.13;;
20931;SDS011;10625;49.054;9.348;2022-08-19T09:33:37;15.77;;;13.77;;
20931;SDS011;10625;49.054;9.348;2022-08-19T09:36:05;18.63;;;14.00;;
20931;SDS011;10625;49.054;9.348;2022-08-19T09:38:34;15.50;;;12.87;;
20931;SDS011;10625;49.054;9.348;2022-08-19T09:41:02;19.17;;;14.57;;
20931;SDS011;10625;49.054;9.348;2022-08-19T09:43:31;21.57;;;14.83;;
20931;SDS011;10625;49.054;9.348;2022-08-19T09:45:58;15.13;;;13.53;;
20931;SDS011;10625;49.054;9.348;2022-08-19T09:48:26;16.50;;;14.70;;
20931;SDS011;10625;49.054;9.348;2022-08-19T09:50:53;17.80;;;14.70;;
20931;SDS011;10625;49.054;9.348;2022-08-19T09:53:22;16.47;;;13.53;;
20931;SDS011;10625;49.054;9.348;2022-08-19T09:55:49;16.27;;;12.60;;
20931;SDS011;10625;49.054;9.348;2022-08-19T09:58:16;17.03;;;13.57;;
20931;SDS011;10625;49.054;9.348;2022-08-19T10:00:44;14.63;;;13.10;;
20931;SDS011;10625;49.054;9.348;2022-08-19T10:03:12;15.17;;;13.63;;
20931;SDS011;10625;49.054;9.348;2022-08-19T10:05:39;14.93;;;13.30;;
20931;SDS011;10625;49.054;9.348;2022-08-19T10:08:16;20.40;;;13.97;;
20931;SDS011;10625;49.054;9.348;2022-08-19T10:10:44;18.30;;;13.87;;
20931;SDS011;10625;49.054;9.348;2022-08-19T10:13:12;13.13;;;11.73;;
20931;SDS011;10625;49.054;9.348;2022-08-19T10:15:40;16.50;;;13.10;;
20931;SDS011;10625;49.054;9.348;2022-08-19T10:18:08;13.83;;;11.73;;
20931;SDS011;10625;49.054;9.348;2022-08-19T10:20:36;16.00;;;13.00;;
20931;SDS011;10625;49.054;9.348;2022-08-19T10:23:03;15.07;;;12.93;;
20931;SDS011;10625;49.054;9.348;2022-08-19T10:25:31;19.00;;;16.57;;
20931;SDS011;10625;49.054;9.348;2022-08-19T10:27:58;14.47;;;11.93;;
20931;SDS011;10625;49.054;9.348;2022-08-19T10:30:26;13.67;;;11.17;;
20931;SDS011;10625;49.054;9.348;2022-08-19T10:32:53;13.33;;;11.93;;
20931;SDS011;10625;49.054;9.348;2022-08-19T10:35:21;12.80;;;11.47;;
20931;SDS011;10625;49.054;9.348;2022-08-19T10:37:48;14.40;;;10.53;;
20931;SDS011;10625;49.054;9.348;2022-08-19T10:40:15;12.27;;;10.97;;
20931;SDS011;10625;49.054;9.348;2022-08-19T10:42:42;12.83;;;11.53;;
20931;SDS011;10625;49.054;9.348;2022-08-19T10:45:10;12.60;;;11.07;;
20931;SDS011;10625;49.054;9.348;2022-08-19T10:47:37;15.23;;;11.93;;
20931;SDS011;10625;49.054;9.348;2022-08-19T10:50:05;12.03;;;9.90;;
20931;SDS011;10625;49.054;9.348;2022-08-19T10:52:50;11.40;;;9.47;;
20931;SDS011;10625;49.054;9.348;2022-08-19T10:55:19;11.53;;;8.90;;
20931;SDS011;10625;49.054;9.348;2022-08-19T10:58:09;11.33;;;8.67;;
20931;SDS011;10625;49.054;9.348;2022-08-19T11:00:34;9.73;;;8.17;;
20931;SDS011;10625;49.054;9.348;2022-08-19T11:03:01;7.67;;;6.73;;
20931;SDS011;10625;49.054;9.348;2022-08-19T11:05:28;8.30;;;7.13;;
20931;SDS011;10625;49.054;9.348;2022-08-19T11:07:56;8.40;;;7.47;;
20931;SDS011;10625;49.054;9.348;2022-08-19T11:10:23;9.60;;;6.97;;
20931;SDS011;10625;49.054;9.348;2022-08-19T11:12:51;8.80;;;6.23;;
20931;SDS011;10625;49.054;9.348;2022-08-19T11:15:21;7.23;;;6.53;;
20931;SDS011;10625;49.054;9.348;2022-08-19T11:17:50;7.40;;;6.27;;
20931;SDS011;10625;49.054;9.348;2022-08-19T11:20:19;8.57;;;6.30;;
20931;SDS011;10625;49.054;9.348;2022-08-19T11:22:46;7.60;;;6.90;;
20931;SDS011;10625;49.054;9.348;2022-08-19T11:25:14;8.60;;;6.83;;
20931;SDS011;10625;49.054;9.348;2022-08-19T11:27:41;8.37;;;6.60;;
20931;SDS011;10625;49.054;9.348;2022-08-19T11:30:10;7.00;;;6.40;;
20931;SDS011;10625;49.054;9.348;2022-08-19T11:32:37;9.00;;;6.50;;
20931;SDS011;10625;49.054;9.348;2022-08-19T11:35:05;7.10;;;6.07;;
20931;SDS011;10625;49.054;9.348;2022-08-19T11:37:32;7.23;;;5.97;;
20931;SDS011;10625;49.054;9.348;2022-08-19T11:40:01;9.20;;;6.83;;
20931;SDS011;10625;49.054;9.348;2022-08-19T11:42:28;9.80;;;6.70;;
20931;SDS011;10625;49.054;9.348;2022-08-19T11:45:14;7.47;;;6.27;;
20931;SDS011;10625;49.054;9.348;2022-08-19T11:47:41;9.27;;;6.57;;
20931;SDS011;10625;49.054;9.348;2022-08-19T11:50:09;7.33;;;6.60;;
20931;SDS011;10625;49.054;9.348;2022-08-19T11:52:37;9.13;;;6.13;;
20931;SDS011;10625;49.054;9.348;2022-08-19T11:55:04;7.63;;;6.47;;
20931;SDS011;10625;49.054;9.348;2022-08-19T11:57:31;8.90;;;6.23;;
20931;SDS011;10625;49.054;9.348;2022-08-19T11:59:59;8.90;;;6.30;;
20931;SDS011;10625;49.054;9.348;2022-08-19T12:02:27;5.90;;;5.30;;
20931;SDS011;10625;49.054;9.348;2022-08-19T12:04:54;6.70;;;6.10;;
20931;SDS011;10625;49.054;9.348;2022-08-19T12:07:22;8.30;;;5.83;;
20931;SDS011;10625;49.054;9.348;2022-08-19T12:09:50;6.63;;;5.70;;
20931;SDS011;10625;49.054;9.348;2022-08-19T12:12:18;6.87;;;4.87;;
20931;SDS011;10625;49.054;9.348;2022-08-19T12:14:45;5.97;;;5.47;;
20931;SDS011;10625;49.054;9.348;2022-08-19T12:17:12;6.73;;;5.47;;
20931;SDS011;10625;49.054;9.348;2022-08-19T12:19:39;6.37;;;5.30;;
20931;SDS011;10625;49.054;9.348;2022-08-19T12:22:07;5.33;;;4.83;;
20931;SDS011;10625;49.054;9.348;2022-08-19T12:24:34;5.80;;;4.90;;
20931;SDS011;10625;49.054;9.348;2022-08-19T12:27:02;5.77;;;4.97;;
20931;SDS011;10625;49.054;9.348;2022-08-19T12:29:29;5.10;;;4.60;;
20931;SDS011;10625;49.054;9.348;2022-08-19T12:31:57;5.47;;;5.00;;
20931;SDS011;10625;49.054;9.348;2022-08-19T12:34:28;5.73;;;4.70;;
20931;SDS011;10625;49.054;9.348;2022-08-19T12:37:02;5.73;;;4.57;;
20931;SDS011;10625;49.054;9.348;2022-08-19T12:39:25;5.00;;;4.50;;
20931;SDS011;10625;49.054;9.348;2022-08-19T12:41:53;5.80;;;5.07;;
20931;SDS011;10625;49.054;9.348;2022-08-19T12:44:20;5.33;;;4.70;;
20931;SDS011;10625;49.054;9.348;2022-08-19T12:46:48;6.27;;;4.40;;
20931;SDS011;10625;49.054;9.348;2022-08-19T12:49:15;5.40;;;4.80;;
20931;SDS011;10625;49.054;9.348;2022-08-19T12:51:42;5.63;;;5.13;;
20931;SDS011;10625;49.054;9.348;2022-08-19T12:54:09;5.40;;;4.90;;
20931;SDS011;10625;49.054;9.348;2022-08-19T12:56:37;5.60;;;5.07;;
20931;SDS011;10625;49.054;9.348;2022-08-19T12:59:04;5.27;;;4.77;;
20931;SDS011;10625;49.054;9.348;2022-08-19T13:01:33;6.90;;;5.03;;
20931;SDS011;10625;49.054;9.348;2022-08-19T13:04:00;5.63;;;4.67;;
20931;SDS011;10625;49.054;9.348;2022-08-19T13:06:28;5.13;;;4.63;;
20931;SDS011;10625;49.054;9.348;2022-08-19T13:08:55;4.70;;;4.30;;
20931;SDS011;10625;49.054;9.348;2022-08-19T13:11:23;4.47;;;4.07;;
20931;SDS011;10625;49.054;9.348;2022-08-19T13:13:53;5.30;;;4.63;;
20931;SDS011;10625;49.054;9.348;2022-08-19T13:16:21;6.70;;;5.83;;
20931;SDS011;10625;49.054;9.348;2022-08-19T13:18:48;5.57;;;5.07;;
20931;SDS011;10625;49.054;9.348;2022-08-19T13:21:18;6.13;;;5.00;;
20931;SDS011;10625;49.054;9.348;2022-08-19T13:23:46;5.10;;;4.70;;
20931;SDS011;10625;49.054;9.348;2022-08-19T13:26:14;5.13;;;4.30;;
20931;SDS011;10625;49.054;9.348;2022-08-19T13:28:42;4.60;;;4.20;;
20931;SDS011;10625;49.054;9.348;2022-08-19T13:31:28;4.77;;;4.33;;
20931;SDS011;10625;49.054;9.348;2022-08-19T13:34:15;4.60;;;4.20;;
20931;SDS011;10625;49.054;9.348;2022-08-19T13:36:42;5.10;;;4.60;;
20931;SDS011;10625;49.054;9.348;2022-08-19T13:39:10;6.67;;;4.30;;
20931;SDS011;10625;49.054;9.348;2022-08-19T13:41:41;4.80;;;4.40;;
20931;SDS011;10625;49.054;9.348;2022-08-19T13:44:06;4.97;;;4.57;;
20931;SDS011;10625;49.054;9.348;2022-08-19T13:46:34;4.50;;;4.10;;
20931;SDS011;10625;49.054;9.348;2022-08-19T13:49:02;5.10;;;4.30;;
20931;SDS011;10625;49.054;9.348;2022-08-19T13:51:30;6.77;;;4.23;;
20931;SDS011;10625;49.054;9.348;2022-08-19T13:53:57;5.57;;;4.60;;
20931;SDS011;10625;49.054;9.348;2022-08-19T13:56:25;5.00;;;4.23;;
20931;SDS011;10625;49.054;9.348;2022-08-19T13:58:52;4.63;;;3.90;;
20931;SDS011;10625;49.054;9.348;2022-08-19T14:01:20;5.03;;;4.60;;
20931;SDS011;10625;49.054;9.348;2022-08-19T14:03:48;5.53;;;4.70;;
20931;SDS011;10625;49.054;9.348;2022-08-19T14:06:15;6.80;;;5.80;;
20931;SDS011;10625;49.054;9.348;2022-08-19T14:08:42;6.70;;;5.80;;
20931;SDS011;10625;49.054;9.348;2022-08-19T14:11:10;6.37;;;5.70;;
20931;SDS011;10625;49.054;9.348;2022-08-19T14:13:37;6.30;;;5.70;;
20931;SDS011;10625;49.054;9.348;2022-08-19T14:16:13;6.97;;;6.27;;
20931;SDS011;10625;49.054;9.348;2022-08-19T14:18:36;7.07;;;6.13;;
20931;SDS011;10625;49.054;9.348;2022-08-19T14:21:04;9.03;;;5.90;;
20931;SDS011;10625;49.054;9.348;2022-08-19T14:23:32;5.67;;;5.13;;
20931;SDS011;10625;49.054;9.348;2022-08-19T14:26:03;5.93;;;5.37;;
20931;SDS011;10625;49.054;9.348;2022-08-19T14:28:30;5.70;;;5.10;;
20931;SDS011;10625;49.054;9.348;2022-08-19T14:30:58;6.43;;;5.50;;
20931;SDS011;10625;49.054;9.348;2022-08-19T14:33:25;8.00;;;5.80;;
20931;SDS011;10625;49.054;9.348;2022-08-19T14:35:52;7.17;;;6.47;;
20931;SDS011;10625;49.054;9.348;2022-08-19T14:38:20;5.80;;;5.30;;
20931;SDS011;10625;49.054;9.348;2022-08-19T14:40:47;7.00;;;5.00;;
20931;SDS011;10625;49.054;9.348;2022-08-19T14:43:15;6.87;;;5.67;;
20931;SDS011;10625;49.054;9.348;2022-08-19T14:45:43;7.97;;;6.07;;
20931;SDS011;10625;49.054;9.348;2022-08-19T14:48:11;6.70;;;6.10;;